createdAt,value
2022-12-27T00:00:19.609Z,48.33
2022-12-27T00:03:22.377Z,44.78
2022-12-27T00:06:26.533Z,46.03
2022-12-27T00:09:29.196Z,50.00
2022-12-27T00:12:31.569Z,45.95
2022-12-27T00:15:35.180Z,52.08
2022-12-27T00:18:39.215Z,44.70
2022-12-27T00:21:41.948Z,48.90
2022-12-27T00:24:44.285Z,45.00
2022-12-27T00:27:46.998Z,46.53
2022-12-27T00:30:55.120Z,43.65
2022-12-27T00:34:00.537Z,49.72
2022-12-27T00:37:02.848Z,49.87
2022-12-27T00:40:05.859Z,53.33
2022-12-27T00:43:08.412Z,50.03
2022-12-27T00:46:11.972Z,50.40
2022-12-27T00:49:14.343Z,40.90
2022-12-27T00:52:16.971Z,44.70
2022-12-27T00:55:19.281Z,46.75
2022-12-27T00:58:22.250Z,42.28
2022-12-27T01:01:26.244Z,46.03
2022-12-27T01:04:28.948Z,42.25
2022-12-27T01:07:31.231Z,43.23
2022-12-27T01:10:34.164Z,38.20
2022-12-27T01:13:37.088Z,42.58
2022-12-27T01:16:40.748Z,40.30
2022-12-27T01:19:43.351Z,35.25
2022-12-27T01:22:46.053Z,37.43
2022-12-27T01:25:48.348Z,36.20
2022-12-27T01:28:52.133Z,37.22
2022-12-27T01:31:54.489Z,40.22
2022-12-27T01:34:57.116Z,37.78
2022-12-27T01:37:59.464Z,34.93
2022-12-27T01:41:22.094Z,34.80
2022-12-27T01:44:39.795Z,39.47
2022-12-27T01:48:00.931Z,22.30
2022-12-27T01:51:05.134Z,9.10
2022-12-27T01:54:07.728Z,7.63
2022-12-27T01:57:10.522Z,6.75
2022-12-27T02:00:14.005Z,5.85
2022-12-27T02:03:31.041Z,5.68
2022-12-27T02:06:35.577Z,5.45
2022-12-27T02:09:56.467Z,7.07
2022-12-27T02:13:00.937Z,7.55
2022-12-27T02:16:13.948Z,10.60
2022-12-27T02:19:43.072Z,8.50
2022-12-27T02:23:41.887Z,15.15
2022-12-27T02:27:26.130Z,13.80
2022-12-27T02:30:32.079Z,10.75
2022-12-27T02:33:42.459Z,15.40
2022-12-27T02:36:46.461Z,14.95
2022-12-27T02:39:50.461Z,21.30
2022-12-27T02:43:11.912Z,25.27
2022-12-27T02:46:39.498Z,23.20
2022-12-27T02:50:02.409Z,21.87
2022-12-27T02:53:09.952Z,24.58
2022-12-27T02:56:44.278Z,22.58
2022-12-27T03:00:33.633Z,22.63
2022-12-27T03:03:49.425Z,21.20
2022-12-27T03:07:04.758Z,19.95
2022-12-27T03:10:51.422Z,17.42
2022-12-27T03:14:37.399Z,10.25
2022-12-27T03:17:50.892Z,9.70
2022-12-27T03:21:15.581Z,7.20
2022-12-27T03:24:40.968Z,6.15
2022-12-27T03:27:45.431Z,5.43
2022-12-27T03:31:14.365Z,5.93
2022-12-27T03:34:32.087Z,6.23
2022-12-27T03:37:57.595Z,4.50
2022-12-27T03:41:22.585Z,4.68
2022-12-27T03:44:26.140Z,4.62
2022-12-27T03:47:38.020Z,4.18
2022-12-27T03:50:49.718Z,4.37
2022-12-27T03:53:58.699Z,4.78
2022-12-27T03:57:04.406Z,5.40
2022-12-27T04:00:07.562Z,6.15
2022-12-27T04:03:15.333Z,4.90
2022-12-27T04:06:18.017Z,5.60
2022-12-27T04:09:39.480Z,6.50
2022-12-27T04:13:00.552Z,6.25
2022-12-27T04:16:21.582Z,6.70
2022-12-27T04:19:42.830Z,7.43
2022-12-27T04:23:03.863Z,6.73
2022-12-27T04:26:25.316Z,6.95
2022-12-27T04:29:45.940Z,6.22
2022-12-27T04:33:06.796Z,7.75
2022-12-27T04:36:09.508Z,10.20
2022-12-27T04:39:12.405Z,7.07
2022-12-27T04:42:33.573Z,7.25
2022-12-27T04:45:54.579Z,8.05
2022-12-27T04:49:15.441Z,7.20
2022-12-27T04:52:40.341Z,8.25
2022-12-27T04:55:42.697Z,8.03
2022-12-27T04:59:05.244Z,8.02
2022-12-27T05:02:07.603Z,8.70
2022-12-27T05:05:11.415Z,10.25
2022-12-27T05:08:33.490Z,10.48
2022-12-27T05:11:54.504Z,10.00
2022-12-27T05:14:56.840Z,10.02
2022-12-27T05:17:59.627Z,9.45
2022-12-27T05:21:06.670Z,8.40
2022-12-27T05:24:27.824Z,8.82
2022-12-27T05:27:30.808Z,9.63
2022-12-27T05:30:35.035Z,8.05
2022-12-27T05:33:37.311Z,5.97
2022-12-27T05:36:39.986Z,8.00
2022-12-27T05:39:42.677Z,7.60
2022-12-27T05:42:45.291Z,6.93
2022-12-27T05:45:47.628Z,6.10
2022-12-27T05:48:50.416Z,5.70
2022-12-27T05:51:52.815Z,5.68
2022-12-27T05:54:55.563Z,5.53
2022-12-27T05:57:57.878Z,5.97
2022-12-27T06:01:01.404Z,6.20
2022-12-27T06:04:04.870Z,5.87
2022-12-27T06:07:07.294Z,5.80
2022-12-27T06:10:10.370Z,6.07
2022-12-27T06:13:12.744Z,5.47
2022-12-27T06:16:15.463Z,5.30
2022-12-27T06:19:17.881Z,5.20
2022-12-27T06:22:20.472Z,5.47
2022-12-27T06:25:22.809Z,6.40
2022-12-27T06:28:25.416Z,7.50
2022-12-27T06:31:28.644Z,11.15
2022-12-27T06:34:31.235Z,6.12
2022-12-27T06:37:33.565Z,4.35
2022-12-27T06:40:36.140Z,4.78
2022-12-27T06:43:40.195Z,4.00
2022-12-27T06:46:42.790Z,4.22
2022-12-27T06:49:45.077Z,3.42
2022-12-27T06:52:47.752Z,4.87
2022-12-27T06:55:50.088Z,4.53
2022-12-27T06:58:52.853Z,4.17
2022-12-27T07:01:55.301Z,4.15
2022-12-27T07:04:58.003Z,4.43
2022-12-27T07:08:00.365Z,5.30
2022-12-27T07:11:08.631Z,3.12
2022-12-27T07:14:11.202Z,3.60
2022-12-27T07:17:13.862Z,3.25
2022-12-27T07:20:16.407Z,3.87
2022-12-27T07:23:19.650Z,2.80
2022-12-27T07:26:25.994Z,4.05
2022-12-27T07:29:28.667Z,3.70
2022-12-27T07:32:33.386Z,3.65
2022-12-27T07:35:38.617Z,3.22
2022-12-27T07:38:44.893Z,3.35
2022-12-27T07:41:47.561Z,2.97
2022-12-27T07:44:49.984Z,3.00
2022-12-27T07:47:53.346Z,2.37
2022-12-27T07:50:56.173Z,2.87
2022-12-27T07:53:59.943Z,3.28
2022-12-27T07:57:02.423Z,2.75
2022-12-27T08:00:05.842Z,4.37
2022-12-27T08:03:14.374Z,3.00
2022-12-27T08:06:33.689Z,4.85
2022-12-27T08:09:39.004Z,3.97
2022-12-27T08:12:41.722Z,3.62
2022-12-27T08:15:44.331Z,3.37
2022-12-27T08:18:47.223Z,2.75
2022-12-27T08:21:50.609Z,3.92
2022-12-27T08:24:53.637Z,3.75
2022-12-27T08:28:06.120Z,2.85
2022-12-27T08:31:10.272Z,3.77
2022-12-27T08:34:12.706Z,4.68
2022-12-27T08:37:15.885Z,3.67
2022-12-27T08:40:18.441Z,3.70
2022-12-27T08:43:21.124Z,3.22
2022-12-27T08:46:23.647Z,3.77
2022-12-27T08:49:26.352Z,3.03
2022-12-27T08:52:28.637Z,4.00
2022-12-27T08:55:32.350Z,4.20
2022-12-27T08:58:34.740Z,3.83
2022-12-27T09:01:37.686Z,3.30
2022-12-27T09:04:40.338Z,4.03
2022-12-27T09:07:42.995Z,3.47
2022-12-27T09:10:45.367Z,3.78
2022-12-27T09:13:48.611Z,7.78
2022-12-27T09:16:50.930Z,2.73
2022-12-27T09:19:53.630Z,2.60
2022-12-27T09:22:55.998Z,3.03
2022-12-27T09:25:58.580Z,2.40
2022-12-27T09:29:01.473Z,4.37
2022-12-27T09:32:04.341Z,3.20
2022-12-27T09:35:06.998Z,4.03
2022-12-27T09:38:09.590Z,4.30
2022-12-27T09:45:26.126Z,3.33
2022-12-27T09:48:33.912Z,5.87
2022-12-27T09:51:51.448Z,4.68
2022-12-27T09:55:07.907Z,2.92
2022-12-27T09:58:30.230Z,2.85
2022-12-27T10:01:38.007Z,4.60
2022-12-27T10:05:18.102Z,4.40
2022-12-27T10:08:12.047Z,3.70
2022-12-27T10:11:40.081Z,3.55
2022-12-27T10:15:13.127Z,4.35
2022-12-27T10:18:45.944Z,2.85
2022-12-27T10:22:21.921Z,3.10
2022-12-27T10:25:26.314Z,4.75
2022-12-27T10:28:56.885Z,3.50
2022-12-27T10:31:59.951Z,3.15
2022-12-27T10:35:04.227Z,3.67
2022-12-27T10:38:11.560Z,5.90
2022-12-27T10:41:32.453Z,3.65
2022-12-27T10:44:35.119Z,6.25
2022-12-27T10:47:38.168Z,4.78
2022-12-27T10:50:55.804Z,3.20
2022-12-27T10:54:01.733Z,3.50
2022-12-27T10:57:25.973Z,3.90
2022-12-27T11:00:28.607Z,3.40
2022-12-27T11:03:32.258Z,3.05
2022-12-27T11:06:34.976Z,3.75
2022-12-27T11:09:42.368Z,3.20
2022-12-27T11:13:02.044Z,4.03
2022-12-27T11:16:05.566Z,5.87
2022-12-27T11:19:22.889Z,3.33
2022-12-27T11:22:26.627Z,3.33
2022-12-27T11:25:30.712Z,5.27
2022-12-27T11:28:40.429Z,2.90
2022-12-27T11:31:48.373Z,3.00
2022-12-27T11:34:54.784Z,4.10
2022-12-27T11:37:57.439Z,3.50
2022-12-27T11:41:05.779Z,4.93
2022-12-27T11:44:08.320Z,4.00
2022-12-27T11:47:28.248Z,4.93
2022-12-27T11:50:45.925Z,3.30
2022-12-27T11:54:01.734Z,4.18
2022-12-27T11:57:24.741Z,3.70
2022-12-27T12:00:51.854Z,3.65
2022-12-27T12:04:07.516Z,4.62
2022-12-27T12:07:34.443Z,3.45
2022-12-27T12:11:02.384Z,5.87
2022-12-27T12:14:56.613Z,5.27
2022-12-27T12:18:18.323Z,4.45
2022-12-27T12:21:45.993Z,5.47
2022-12-27T12:25:08.164Z,4.85
2022-12-27T12:28:57.156Z,3.90
2022-12-27T12:32:10.198Z,4.13
2022-12-27T12:35:37.140Z,3.90
2022-12-27T12:38:50.864Z,4.95
2022-12-27T12:42:25.127Z,3.03
2022-12-27T12:45:35.538Z,5.20
2022-12-27T12:49:06.690Z,3.80
2022-12-27T12:52:34.365Z,3.45
2022-12-27T12:55:42.814Z,3.25
2022-12-27T12:59:06.361Z,4.10
2022-12-27T13:02:27.627Z,7.18
2022-12-27T13:05:40.303Z,4.23
2022-12-27T13:09:03.643Z,4.95
2022-12-27T13:12:37.167Z,4.18
2022-12-27T13:16:35.182Z,4.32
2022-12-27T13:20:08.140Z,3.90
2022-12-27T13:23:28.536Z,4.77
2022-12-27T13:27:00.152Z,4.72
2022-12-27T13:30:14.860Z,4.28
2022-12-27T13:34:02.535Z,3.92
2022-12-27T13:37:04.817Z,3.97
2022-12-27T13:40:25.698Z,4.67
2022-12-27T13:43:45.601Z,4.62
2022-12-27T13:47:06.604Z,4.97
2022-12-27T13:50:34.598Z,5.07
2022-12-27T13:53:57.843Z,8.43
2022-12-27T13:57:09.377Z,8.17
2022-12-27T14:00:21.201Z,4.82
2022-12-27T14:03:26.733Z,4.47
2022-12-27T14:10:44.533Z,7.05
2022-12-27T14:13:47.539Z,4.30
2022-12-27T14:17:08.603Z,4.95
2022-12-27T14:20:35.453Z,4.50
2022-12-27T14:23:43.798Z,4.53
2022-12-27T14:27:10.750Z,5.57
2022-12-27T14:30:51.764Z,6.03
2022-12-27T14:34:16.757Z,5.15
2022-12-27T14:37:45.770Z,4.78
2022-12-27T14:41:12.588Z,6.35
2022-12-27T14:44:24.205Z,4.18
2022-12-27T14:48:00.519Z,5.23
2022-12-27T14:51:58.782Z,6.85
2022-12-27T14:55:31.001Z,5.03
2022-12-27T14:58:47.620Z,4.15
2022-12-27T15:01:53.103Z,8.07
2022-12-27T15:05:31.947Z,7.77
2022-12-27T15:09:06.805Z,4.82
2022-12-27T15:12:44.884Z,4.32
2022-12-27T15:16:17.144Z,4.78
2022-12-27T15:19:49.448Z,6.30
2022-12-27T15:23:07.311Z,4.83
2022-12-27T15:26:21.704Z,4.53
2022-12-27T15:29:48.113Z,4.40
2022-12-27T15:33:02.697Z,4.30
2022-12-27T15:36:18.317Z,5.45
2022-12-27T15:39:47.983Z,6.20
2022-12-27T15:42:56.738Z,5.15
2022-12-27T15:46:20.644Z,5.30
2022-12-27T15:49:29.143Z,6.32
2022-12-27T15:52:34.525Z,4.30
2022-12-27T15:55:39.716Z,6.03
2022-12-27T15:58:42.786Z,4.18
2022-12-27T16:01:45.576Z,5.45
2022-12-27T16:04:53.871Z,7.07
2022-12-27T16:07:59.388Z,4.87
2022-12-27T16:11:10.749Z,4.70
2022-12-27T16:14:26.908Z,5.82
2022-12-27T16:18:04.637Z,6.72
2022-12-27T16:21:12.088Z,10.07
2022-12-27T16:24:23.645Z,11.32
2022-12-27T16:27:32.421Z,6.43
2022-12-27T16:30:44.430Z,8.60
2022-12-27T16:33:46.857Z,5.70
2022-12-27T16:36:51.835Z,5.82
2022-12-27T16:39:57.292Z,8.18
2022-12-27T16:43:05.528Z,11.30
2022-12-27T16:46:17.438Z,9.48
2022-12-27T16:49:48.417Z,8.00
2022-12-27T16:53:05.761Z,5.75
2022-12-27T16:56:16.226Z,4.62
2022-12-27T17:00:04.108Z,7.17
2022-12-27T17:03:21.818Z,8.45
2022-12-27T17:06:34.981Z,6.55
2022-12-27T17:09:41.544Z,6.32
2022-12-27T17:12:52.162Z,6.37
2022-12-27T17:16:22.151Z,4.50
2022-12-27T17:19:34.590Z,5.20
2022-12-27T17:22:39.569Z,5.87
2022-12-27T17:25:52.144Z,4.97
2022-12-27T17:29:13.935Z,6.00
2022-12-27T17:32:22.623Z,5.30
2022-12-27T17:35:34.709Z,5.10
2022-12-27T17:38:54.502Z,5.35
2022-12-27T17:42:35.070Z,6.40
2022-12-27T17:46:15.186Z,5.82
2022-12-27T17:49:25.366Z,6.30
2022-12-27T17:52:46.512Z,6.62
2022-12-27T17:56:31.974Z,5.70
2022-12-27T17:59:37.696Z,5.22
2022-12-27T18:02:40.879Z,5.18
2022-12-27T18:05:46.510Z,8.90
2022-12-27T18:08:49.869Z,8.30
2022-12-27T18:11:52.496Z,6.35
2022-12-27T18:15:01.223Z,5.78
2022-12-27T18:18:09.469Z,6.35
2022-12-27T18:21:27.851Z,7.80
2022-12-27T18:24:32.870Z,6.10
2022-12-27T18:27:35.229Z,9.38
2022-12-27T18:30:45.520Z,6.65
2022-12-27T18:33:58.793Z,8.10
2022-12-27T18:37:11.417Z,7.50
2022-12-27T18:40:23.465Z,7.25
2022-12-27T18:43:26.563Z,8.93
2022-12-27T18:46:36.615Z,8.43
2022-12-27T18:49:39.347Z,8.77
2022-12-27T18:52:43.496Z,10.30
2022-12-27T18:56:15.715Z,9.98
2022-12-27T18:59:18.019Z,7.20
2022-12-27T19:02:47.870Z,6.57
2022-12-27T19:05:59.584Z,9.85
2022-12-27T19:09:02.293Z,13.23
2022-12-27T19:12:19.358Z,21.08
2022-12-27T19:15:36.955Z,12.75
2022-12-27T19:18:39.483Z,14.18
2022-12-27T19:21:42.299Z,12.63
2022-12-27T19:24:45.181Z,12.13
2022-12-27T19:28:28.681Z,13.38
2022-12-27T19:31:31.507Z,13.50
2022-12-27T19:34:45.306Z,10.82
2022-12-27T19:37:47.770Z,10.75
2022-12-27T19:40:56.729Z,13.07
2022-12-27T19:44:04.006Z,10.55
2022-12-27T19:47:07.080Z,10.88
2022-12-27T19:50:10.343Z,9.32
2022-12-27T19:53:22.798Z,9.18
2022-12-27T19:56:25.309Z,13.50
2022-12-27T19:59:28.004Z,8.75
2022-12-27T20:02:31.076Z,10.88
2022-12-27T20:06:11.631Z,12.52
2022-12-27T20:08:56.318Z,9.02
2022-12-27T20:11:59.255Z,9.50
2022-12-27T20:15:01.829Z,6.40
2022-12-27T20:18:04.525Z,7.20
2022-12-27T20:21:07.832Z,10.10
2022-12-27T20:24:15.254Z,8.75
2022-12-27T20:27:23.706Z,8.03
2022-12-27T20:30:26.726Z,12.20
2022-12-27T20:33:29.126Z,9.73
2022-12-27T20:36:31.758Z,10.02
2022-12-27T20:39:34.444Z,9.85
2022-12-27T20:42:37.461Z,11.27
2022-12-27T20:45:39.814Z,7.93
2022-12-27T20:48:45.229Z,7.82
2022-12-27T20:51:47.681Z,7.20
2022-12-27T20:54:51.463Z,8.70
2022-12-27T20:57:53.853Z,9.43
2022-12-27T21:00:56.618Z,8.68
2022-12-27T21:03:59.352Z,8.52
2022-12-27T21:07:02.099Z,11.85
2022-12-27T21:10:06.182Z,11.43
2022-12-27T21:13:09.014Z,9.20
2022-12-27T21:16:14.426Z,7.43
2022-12-27T21:19:17.169Z,8.80
2022-12-27T21:22:19.605Z,8.55
2022-12-27T21:25:22.172Z,8.00
2022-12-27T21:28:24.522Z,9.07
2022-12-27T21:31:28.298Z,9.38
2022-12-27T21:34:31.088Z,8.40
2022-12-27T21:37:34.859Z,5.93
2022-12-27T21:40:37.306Z,6.82
2022-12-27T21:43:40.791Z,7.43
2022-12-27T21:46:43.805Z,7.60
2022-12-27T21:49:46.821Z,6.85
2022-12-27T21:52:57.631Z,8.38
2022-12-27T21:56:02.983Z,9.73
2022-12-27T21:59:10.875Z,8.50
2022-12-27T22:02:13.738Z,11.73
2022-12-27T22:05:16.785Z,9.07
2022-12-27T22:08:19.359Z,9.85
2022-12-27T22:11:23.297Z,7.62
2022-12-27T22:14:26.407Z,8.43
2022-12-27T22:17:30.363Z,9.27
2022-12-27T22:20:32.674Z,7.07
2022-12-27T22:23:38.899Z,7.30
2022-12-27T22:26:42.962Z,6.37
2022-12-27T22:29:46.853Z,7.73
2022-12-27T22:32:49.174Z,5.95
2022-12-27T22:35:51.936Z,7.45
2022-12-27T22:38:58.712Z,8.18
2022-12-27T22:42:01.557Z,9.00
2022-12-27T22:45:04.709Z,10.57
2022-12-27T22:48:07.362Z,6.40
2022-12-27T22:51:14.041Z,6.35
2022-12-27T22:54:16.880Z,8.13
2022-12-27T22:57:19.209Z,8.52
2022-12-27T23:00:22.042Z,6.93
2022-12-27T23:03:24.793Z,7.50
2022-12-27T23:06:28.424Z,7.32
2022-12-27T23:09:30.757Z,6.25
2022-12-27T23:12:33.347Z,7.75
2022-12-27T23:15:35.680Z,5.93
2022-12-27T23:18:41.965Z,6.45
2022-12-27T23:21:44.980Z,6.45
2022-12-27T23:24:47.661Z,6.50
2022-12-27T23:27:49.955Z,6.43
2022-12-27T23:31:01.673Z,6.40
2022-12-27T23:34:04.048Z,6.68
2022-12-27T23:37:09.790Z,7.37
2022-12-27T23:40:15.509Z,6.53
2022-12-27T23:43:50.697Z,6.70
2022-12-27T23:46:40.650Z,8.10
2022-12-27T23:49:43.277Z,6.60
2022-12-27T23:52:45.700Z,6.35
2022-12-27T23:56:08.760Z,8.18
2022-12-27T23:59:11.532Z,10.52
